TimeEDT,TemperatureF,Dew PointF,Humidity,Sea Level PressureIn,VisibilityMPH,Wind Direction,Wind SpeedMPH,Gust SpeedMPH,PrecipitationIn,Events,Conditions,WindDirDegrees,DateUTC
12:56 AM,55.9,52.0,87,30.15,10.0,WSW,5.8,-,N/A,,Clear,250,2013-09-19 04:56:00
1:56 AM,57.0,53.1,87,30.14,10.0,WSW,6.9,-,N/A,,Clear,250,2013-09-19 05:56:00
2:56 AM,55.9,53.1,90,30.13,10.0,WSW,6.9,-,N/A,,Clear,240,2013-09-19 06:56:00
3:56 AM,54.0,52.0,93,30.12,10.0,SW,4.6,-,N/A,,Clear,230,2013-09-19 07:56:00
4:56 AM,55.9,53.1,90,30.12,10.0,WSW,5.8,-,N/A,,Clear,250,2013-09-19 08:56:00
5:56 AM,55.0,52.0,89,30.12,10.0,WSW,5.8,-,N/A,,Clear,250,2013-09-19 09:56:00
6:56 AM,55.0,52.0,89,30.12,10.0,WSW,5.8,-,N/A,,Clear,250,2013-09-19 10:56:00
7:56 AM,59.0,53.1,81,30.12,10.0,WSW,8.1,-,N/A,,Clear,250,2013-09-19 11:56:00
8:56 AM,63.0,52.0,67,30.13,10.0,West,4.6,-,N/A,,Clear,270,2013-09-19 12:56:00
9:56 AM,66.9,50.0,54,30.13,10.0,West,4.6,-,N/A,,Clear,270,2013-09-19 13:56:00
10:56 AM,70.0,51.1,51,30.12,10.0,Variable,3.5,-,N/A,,Clear,0,2013-09-19 14:56:00
11:56 AM,71.1,55.0,57,30.10,10.0,SSW,5.8,-,N/A,,Clear,200,2013-09-19 15:56:00
12:56 PM,72.0,55.0,55,30.10,10.0,SW,6.9,-,N/A,,Clear,220,2013-09-19 16:56:00
1:56 PM,73.0,54.0,51,30.08,10.0,SSW,6.9,-,N/A,,Clear,200,2013-09-19 17:56:00
2:56 PM,73.9,55.0,52,30.06,10.0,SW,9.2,-,N/A,,Clear,220,2013-09-19 18:56:00
3:56 PM,73.0,57.0,57,30.06,10.0,SSW,9.2,-,N/A,,Clear,210,2013-09-19 19:56:00
4:56 PM,71.1,55.9,59,30.05,10.0,SW,9.2,-,N/A,,Clear,230,2013-09-19 20:56:00
5:56 PM,68.0,59.0,73,30.06,10.0,SW,9.2,-,N/A,,Clear,230,2013-09-19 21:56:00
6:56 PM,64.0,57.9,80,30.06,10.0,SW,8.1,-,N/A,,Clear,230,2013-09-19 22:56:00
7:56 PM,62.1,55.0,78,30.06,10.0,WSW,6.9,-,N/A,,Clear,240,2013-09-19 23:56:00
8:56 PM,60.1,55.0,83,30.07,10.0,SW,5.8,-,N/A,,Clear,230,2013-09-20 00:56:00
9:56 PM,59.0,55.9,90,30.08,10.0,SW,5.8,-,N/A,,Clear,230,2013-09-20 01:56:00
10:56 PM,61.0,57.0,87,30.07,10.0,West,6.9,-,N/A,,Clear,260,2013-09-20 02:56:00
11:56 PM,61.0,57.0,87,30.06,10.0,West,6.9,-,N/A,,Clear,260,2013-09-20 03:56:00